createdAt,value
2023-05-12T00:00:58.004Z,5.30
2023-05-12T00:03:25.097Z,7.03
2023-05-12T00:05:52.321Z,7.01
2023-05-12T00:08:19.324Z,5.50
2023-05-12T00:10:46.034Z,5.72
2023-05-12T00:13:12.854Z,5.68
2023-05-12T00:15:39.751Z,6.59
2023-05-12T00:18:06.607Z,7.49
2023-05-12T00:20:33.430Z,7.30
2023-05-12T00:23:00.219Z,6.06
2023-05-12T00:25:26.974Z,7.37
2023-05-12T00:27:53.714Z,7.36
2023-05-12T00:30:21.448Z,7.79
2023-05-12T00:32:48.548Z,7.31
2023-05-12T00:35:16.469Z,5.61
2023-05-12T00:37:43.602Z,7.52
2023-05-12T00:40:10.991Z,7.00
2023-05-12T00:42:38.217Z,7.44
2023-05-12T00:45:06.426Z,6.85
2023-05-12T00:47:33.954Z,6.15
2023-05-12T00:50:01.030Z,5.84
2023-05-12T00:52:27.996Z,5.82
2023-05-12T00:54:55.240Z,7.07
2023-05-12T00:57:24.160Z,7.37
2023-05-12T00:59:51.704Z,7.15
2023-05-12T01:02:18.490Z,7.81
2023-05-12T01:04:45.568Z,7.16
2023-05-12T01:07:22.700Z,6.62
2023-05-12T01:09:55.653Z,7.42
2023-05-12T01:12:24.175Z,7.16
2023-05-12T01:14:53.793Z,7.01
2023-05-12T01:17:29.649Z,7.49
2023-05-12T01:20:00.368Z,7.62
2023-05-12T01:22:31.424Z,7.21
2023-05-12T01:25:04.477Z,6.84
2023-05-12T01:27:33.199Z,7.86
2023-05-12T01:30:05.727Z,6.93
2023-05-12T01:32:35.851Z,7.60
2023-05-12T01:35:04.021Z,6.95
2023-05-12T01:37:32.806Z,7.57
2023-05-12T01:40:02.663Z,7.06
2023-05-12T01:42:29.705Z,7.36
2023-05-12T01:44:57.065Z,7.73
2023-05-12T01:47:24.160Z,7.57
2023-05-12T01:49:57.709Z,7.17
2023-05-12T01:52:25.526Z,7.40
2023-05-12T01:54:52.456Z,6.82
2023-05-12T01:57:19.344Z,7.25
2023-05-12T01:59:47.062Z,7.13
2023-05-12T02:02:13.948Z,7.19
2023-05-12T02:04:40.922Z,7.00
2023-05-12T02:07:08.213Z,6.44
2023-05-12T02:09:34.969Z,7.02
2023-05-12T02:12:02.618Z,6.33
2023-05-12T02:14:29.957Z,6.18
2023-05-12T02:16:57.216Z,6.75
2023-05-12T02:19:25.808Z,5.05
2023-05-12T02:21:52.824Z,5.32
2023-05-12T02:24:21.764Z,6.52
2023-05-12T02:26:49.093Z,5.63
2023-05-12T02:29:16.077Z,6.83
2023-05-12T02:31:42.951Z,6.62
2023-05-12T02:34:16.175Z,6.77
2023-05-12T02:36:43.048Z,6.78
2023-05-12T02:39:11.616Z,7.09
2023-05-12T02:41:38.740Z,7.16
2023-05-12T02:44:05.734Z,7.25
2023-05-12T02:46:32.827Z,6.78
2023-05-12T02:48:59.652Z,7.06
2023-05-12T02:51:26.441Z,6.69
2023-05-12T02:53:53.712Z,6.70
2023-05-12T02:56:21.250Z,6.98
2023-05-12T02:58:48.273Z,7.19
2023-05-12T03:01:15.045Z,6.62
2023-05-12T03:03:42.261Z,7.06
2023-05-12T03:06:09.617Z,6.90
2023-05-12T03:08:36.752Z,7.28
2023-05-12T03:11:03.559Z,6.18
2023-05-12T03:13:30.414Z,6.75
2023-05-12T03:16:01.788Z,6.41
2023-05-12T03:18:29.953Z,6.36
2023-05-12T03:20:57.006Z,6.14
2023-05-12T03:23:24.819Z,6.38
2023-05-12T03:25:51.735Z,5.81
2023-05-12T03:28:18.670Z,5.58
2023-05-12T03:30:45.488Z,5.97
2023-05-12T03:33:12.313Z,5.67
2023-05-12T03:35:39.340Z,5.19
2023-05-12T03:38:06.547Z,4.78
2023-05-12T03:40:33.696Z,4.94
2023-05-12T03:43:00.513Z,5.81
2023-05-12T03:45:27.291Z,5.88
2023-05-12T03:47:54.476Z,6.01
2023-05-12T03:50:21.837Z,6.28
2023-05-12T03:52:49.544Z,6.19
2023-05-12T03:55:16.304Z,5.99
2023-05-12T03:57:43.320Z,7.07
2023-05-12T04:00:11.628Z,7.63
2023-05-12T04:02:44.004Z,7.52
2023-05-12T04:05:11.031Z,6.78
2023-05-12T04:07:38.404Z,6.91
2023-05-12T04:10:05.576Z,7.38
2023-05-12T04:12:33.056Z,7.16
2023-05-12T04:15:00.354Z,7.16
2023-05-12T04:17:27.270Z,6.82
2023-05-12T04:19:54.482Z,6.78
2023-05-12T04:22:22.853Z,7.01
2023-05-12T04:24:51.260Z,5.50
2023-05-12T04:27:18.839Z,5.12
2023-05-12T04:29:45.763Z,5.15
2023-05-12T04:32:12.797Z,7.25
2023-05-12T04:34:40.024Z,6.35
2023-05-12T04:37:07.096Z,6.39
2023-05-12T04:39:34.319Z,7.24
2023-05-12T04:42:02.382Z,6.69
2023-05-12T04:44:31.486Z,6.00
2023-05-12T04:46:58.268Z,6.98
2023-05-12T04:49:25.416Z,6.34
2023-05-12T04:51:52.397Z,7.09
2023-05-12T04:54:19.208Z,7.13
2023-05-12T04:56:46.268Z,6.75
2023-05-12T04:59:15.842Z,5.97
2023-05-12T05:01:44.014Z,6.81
2023-05-12T05:04:11.090Z,7.53
2023-05-12T05:06:38.432Z,6.47
2023-05-12T05:09:07.539Z,6.82
2023-05-12T05:11:34.427Z,8.34
2023-05-12T05:14:01.772Z,8.52
2023-05-12T05:16:28.820Z,8.87
2023-05-12T05:18:58.173Z,8.58
2023-05-12T05:21:25.470Z,8.22
2023-05-12T05:23:53.502Z,7.11
2023-05-12T05:26:21.658Z,7.53
2023-05-12T05:28:48.907Z,7.65
2023-05-12T05:31:17.174Z,8.32
2023-05-12T05:33:44.887Z,6.24
2023-05-12T05:36:11.942Z,7.54
2023-05-12T05:38:39.339Z,7.43
2023-05-12T05:41:06.534Z,6.87
2023-05-12T05:43:33.307Z,7.79
2023-05-12T05:46:00.160Z,6.79
2023-05-12T05:48:27.100Z,7.11
2023-05-12T05:50:54.659Z,5.74
2023-05-12T05:53:23.191Z,7.88
2023-05-12T05:55:50.501Z,8.09
2023-05-12T05:58:17.488Z,6.68
2023-05-12T06:00:45.776Z,8.35
2023-05-12T06:03:12.934Z,7.97
2023-05-12T06:05:42.337Z,6.63
2023-05-12T06:08:13.295Z,7.98
2023-05-12T06:10:41.084Z,9.25
2023-05-12T06:13:07.987Z,8.75
2023-05-12T06:15:34.869Z,7.76
2023-05-12T06:18:01.741Z,8.45
2023-05-12T06:20:28.670Z,7.01
2023-05-12T06:22:55.774Z,8.79
2023-05-12T06:25:22.735Z,8.02
2023-05-12T06:27:53.470Z,9.09
2023-05-12T06:30:20.575Z,9.15
2023-05-12T06:32:47.413Z,8.05
2023-05-12T06:35:14.210Z,7.81
2023-05-12T06:37:41.372Z,8.55
2023-05-12T06:40:08.505Z,7.95
2023-05-12T06:42:35.365Z,8.88
2023-05-12T06:45:09.956Z,8.58
2023-05-12T06:47:36.746Z,9.10
2023-05-12T06:50:03.762Z,7.45
2023-05-12T06:52:30.481Z,9.18
2023-05-12T06:54:57.259Z,7.25
2023-05-12T06:57:26.411Z,9.53
2023-05-12T06:59:53.653Z,6.35
2023-05-12T07:02:20.486Z,9.65
2023-05-12T07:04:47.202Z,10.21
2023-05-12T07:07:13.990Z,8.99
2023-05-12T07:09:42.528Z,8.81
2023-05-12T07:12:10.231Z,11.33
2023-05-12T07:14:37.316Z,10.93
2023-05-12T07:17:04.074Z,9.48
2023-05-12T07:19:30.931Z,10.21
2023-05-12T07:21:58.883Z,9.76
2023-05-12T07:24:25.782Z,10.25
2023-05-12T07:26:52.533Z,9.94
2023-05-12T07:29:19.347Z,8.60
2023-05-12T07:31:46.253Z,8.49
2023-05-12T07:34:13.105Z,8.90
2023-05-12T07:36:40.501Z,9.87
2023-05-12T07:39:07.206Z,7.69
2023-05-12T07:41:34.575Z,10.67
2023-05-12T07:44:02.445Z,10.75
2023-05-12T07:46:29.289Z,9.87
2023-05-12T07:48:56.054Z,9.39
2023-05-12T07:51:22.851Z,9.86
2023-05-12T07:53:49.632Z,12.07
2023-05-12T07:56:16.347Z,9.93
2023-05-12T07:58:43.843Z,10.04
2023-05-12T08:01:12.038Z,11.55
2023-05-12T08:03:39.472Z,10.58
2023-05-12T08:06:07.384Z,9.51
2023-05-12T08:08:34.841Z,9.58
2023-05-12T08:11:01.566Z,10.13
2023-05-12T08:13:28.358Z,11.37
2023-05-12T08:15:55.955Z,11.23
2023-05-12T08:18:22.782Z,11.83
2023-05-12T08:20:50.401Z,10.00
2023-05-12T08:23:17.650Z,8.79
2023-05-12T08:25:44.677Z,10.79
2023-05-12T08:28:13.063Z,10.67
2023-05-12T08:30:41.004Z,10.69
2023-05-12T08:33:07.875Z,11.35
2023-05-12T08:35:36.169Z,9.95
2023-05-12T08:38:03.128Z,11.46
2023-05-12T08:40:31.961Z,10.37
2023-05-12T08:43:05.662Z,11.04
2023-05-12T08:45:33.166Z,11.10
2023-05-12T08:48:00.997Z,10.17
2023-05-12T08:50:31.209Z,11.09
2023-05-12T08:52:59.037Z,10.47
2023-05-12T08:55:31.849Z,10.42
2023-05-12T08:58:02.490Z,9.43
2023-05-12T09:00:31.266Z,9.53
2023-05-12T09:03:00.151Z,11.16
2023-05-12T09:05:30.039Z,9.57
2023-05-12T09:07:57.872Z,9.21
2023-05-12T09:10:34.962Z,10.01
2023-05-12T09:13:15.963Z,9.77
2023-05-12T09:15:47.483Z,10.70
2023-05-12T09:18:14.454Z,10.59
2023-05-12T09:20:41.811Z,10.29
2023-05-12T09:23:20.364Z,11.33
2023-05-12T09:25:47.197Z,10.69
2023-05-12T09:28:14.585Z,9.92
2023-05-12T09:30:42.992Z,11.33
2023-05-12T09:33:14.221Z,11.38
2023-05-12T09:35:45.951Z,8.96
2023-05-12T09:38:14.853Z,9.91
2023-05-12T09:40:43.444Z,9.81
2023-05-12T09:43:15.144Z,11.61
2023-05-12T09:45:44.370Z,11.51
2023-05-12T09:48:14.365Z,10.97
2023-05-12T09:50:47.739Z,11.16
2023-05-12T09:53:17.956Z,9.45
2023-05-12T09:55:45.918Z,9.12
2023-05-12T09:58:16.009Z,10.66
2023-05-12T10:01:12.640Z,8.35
2023-05-12T10:03:32.248Z,10.38
2023-05-12T10:06:02.749Z,9.64
2023-05-12T10:08:53.029Z,11.13
2023-05-12T10:11:22.445Z,11.16
2023-05-12T10:13:49.224Z,11.03
2023-05-12T10:16:16.558Z,11.97
2023-05-12T10:18:46.983Z,10.65
2023-05-12T10:21:15.893Z,11.27
2023-05-12T10:23:44.547Z,11.66
2023-05-12T10:26:12.246Z,10.16
2023-05-12T10:28:38.961Z,11.60
2023-05-12T10:31:07.357Z,10.26
2023-05-12T10:33:34.157Z,11.46
2023-05-12T10:36:01.192Z,12.87
2023-05-12T10:38:36.473Z,12.90
2023-05-12T10:41:06.497Z,12.75
2023-05-12T10:43:46.789Z,13.63
2023-05-12T10:46:17.931Z,13.10
2023-05-12T10:49:07.297Z,11.63
2023-05-12T10:51:43.644Z,13.20
2023-05-12T10:54:12.781Z,11.36
2023-05-12T10:56:39.773Z,11.92
2023-05-12T10:59:14.020Z,12.20
2023-05-12T11:02:04.068Z,11.07
2023-05-12T11:04:59.103Z,11.10
2023-05-12T11:07:30.669Z,11.58
2023-05-12T11:10:05.502Z,12.76
2023-05-12T11:12:37.688Z,12.35
2023-05-12T11:15:06.380Z,11.06
2023-05-12T11:17:33.338Z,12.61
2023-05-12T11:20:01.389Z,14.32
2023-05-12T11:22:29.182Z,15.45
2023-05-12T11:24:56.540Z,13.35
2023-05-12T11:27:24.161Z,12.51
2023-05-12T11:30:04.349Z,12.20
2023-05-12T11:32:31.498Z,12.99
2023-05-12T11:35:11.802Z,13.05
2023-05-12T11:37:40.328Z,13.85
2023-05-12T11:40:18.608Z,11.27
2023-05-12T11:42:48.875Z,12.35
2023-05-12T11:45:34.061Z,12.74
2023-05-12T11:48:13.378Z,13.77
2023-05-12T11:50:47.615Z,14.21
2023-05-12T11:53:17.369Z,13.86
2023-05-12T11:55:55.819Z,13.33
2023-05-12T11:58:27.046Z,12.67
2023-05-12T12:00:55.149Z,13.02
2023-05-12T12:03:22.227Z,12.05
2023-05-12T12:06:01.334Z,13.53
2023-05-12T12:08:28.520Z,11.61
2023-05-12T12:10:55.661Z,12.33
2023-05-12T12:13:24.952Z,13.17
2023-05-12T12:15:52.857Z,12.21
2023-05-12T12:18:19.725Z,12.85
2023-05-12T12:20:47.408Z,12.78
2023-05-12T12:23:14.687Z,12.42
2023-05-12T12:25:41.429Z,9.93
2023-05-12T12:28:09.071Z,10.63
2023-05-12T12:30:35.821Z,11.27
2023-05-12T12:33:02.600Z,11.69
2023-05-12T12:35:29.927Z,11.51
2023-05-12T12:37:57.367Z,11.31
2023-05-12T12:40:24.077Z,12.20
2023-05-12T12:42:50.957Z,10.01
2023-05-12T12:45:20.271Z,9.69
2023-05-12T12:47:47.785Z,10.25
2023-05-12T12:50:14.995Z,11.28
2023-05-12T12:52:41.824Z,11.82
2023-05-12T12:55:10.030Z,11.29
2023-05-12T12:57:36.883Z,11.49
2023-05-12T13:00:05.615Z,10.21
2023-05-12T13:02:33.608Z,10.98
2023-05-12T13:05:06.091Z,9.78
2023-05-12T13:07:33.510Z,11.13
2023-05-12T13:10:00.515Z,11.26
2023-05-12T13:12:29.377Z,11.91
2023-05-12T13:14:56.144Z,11.68
2023-05-12T13:17:23.417Z,11.70
2023-05-12T13:19:50.198Z,11.93
2023-05-12T13:22:16.872Z,10.53
2023-05-12T13:24:44.443Z,12.32
2023-05-12T13:27:11.125Z,10.35
2023-05-12T13:29:38.008Z,11.14
2023-05-12T13:32:04.960Z,10.35
2023-05-12T13:34:31.791Z,12.12
2023-05-12T13:36:59.443Z,10.90
2023-05-12T13:39:26.231Z,9.71
2023-05-12T13:41:53.100Z,11.55
2023-05-12T13:44:19.855Z,10.03
2023-05-12T13:46:47.033Z,10.56
2023-05-12T13:49:14.713Z,10.68
2023-05-12T13:51:41.513Z,11.49
2023-05-12T13:54:08.308Z,11.69
2023-05-12T13:56:35.018Z,11.15
2023-05-12T13:59:01.976Z,9.98
2023-05-12T14:01:29.506Z,12.22
2023-05-12T14:03:56.297Z,11.84
2023-05-12T14:06:23.268Z,12.15
2023-05-12T14:08:50.046Z,9.50
2023-05-12T14:11:17.181Z,8.28
2023-05-12T14:13:44.779Z,9.14
2023-05-12T14:16:15.013Z,8.62
2023-05-12T14:18:43.470Z,10.32
2023-05-12T14:21:10.880Z,10.10
2023-05-12T14:23:37.835Z,10.71
2023-05-12T14:26:05.077Z,8.59
2023-05-12T14:28:31.928Z,9.97
2023-05-12T14:30:59.545Z,10.41
2023-05-12T14:33:27.202Z,9.44
2023-05-12T14:36:05.818Z,9.72
2023-05-12T14:38:33.756Z,11.05
2023-05-12T14:41:00.477Z,9.56
2023-05-12T14:43:27.231Z,10.24
2023-05-12T14:45:57.737Z,10.65
2023-05-12T14:48:27.684Z,9.75
2023-05-12T14:50:55.752Z,9.41
2023-05-12T14:53:23.443Z,10.05
2023-05-12T14:55:51.033Z,9.53
2023-05-12T14:58:18.778Z,9.49
2023-05-12T15:00:45.688Z,8.17
2023-05-12T15:03:13.871Z,8.24
2023-05-12T15:06:01.814Z,9.32
2023-05-12T15:08:27.692Z,8.86
2023-05-12T15:10:54.436Z,10.08
2023-05-12T15:13:22.771Z,8.80
2023-05-12T15:15:50.982Z,9.65
2023-05-12T15:18:19.713Z,9.93
2023-05-12T15:20:46.800Z,9.77
2023-05-12T15:23:14.171Z,9.87
2023-05-12T15:25:41.771Z,9.61
2023-05-12T15:28:08.521Z,10.01
2023-05-12T15:30:36.139Z,11.04
2023-05-12T15:33:06.186Z,9.04
2023-05-12T15:35:33.870Z,10.28
2023-05-12T15:38:00.729Z,10.02
2023-05-12T15:40:27.470Z,9.77
2023-05-12T15:42:54.412Z,9.43
2023-05-12T15:45:21.294Z,9.62
2023-05-12T15:47:48.234Z,11.29
2023-05-12T15:50:19.871Z,9.91
2023-05-12T15:52:47.445Z,8.83
2023-05-12T15:55:14.580Z,9.07
2023-05-12T15:57:41.401Z,9.64
2023-05-12T16:00:08.740Z,9.22
2023-05-12T16:02:41.374Z,9.98
2023-05-12T16:05:09.779Z,8.48
2023-05-12T16:07:36.675Z,9.39
2023-05-12T16:10:03.803Z,8.79
2023-05-12T16:12:31.247Z,9.94
2023-05-12T16:14:58.015Z,8.39
2023-05-12T16:17:24.843Z,8.56
2023-05-12T16:19:53.547Z,9.06
2023-05-12T16:22:20.364Z,8.76
2023-05-12T16:24:47.651Z,9.48
2023-05-12T16:27:15.316Z,9.00
2023-05-12T16:29:46.095Z,9.54
2023-05-12T16:32:13.013Z,8.91
2023-05-12T16:34:39.929Z,8.60
2023-05-12T16:37:06.678Z,9.55
2023-05-12T16:39:35.766Z,9.31
2023-05-12T16:42:03.355Z,9.10
2023-05-12T16:44:30.253Z,9.63
2023-05-12T16:46:57.132Z,9.02
2023-05-12T16:49:23.883Z,8.18
2023-05-12T16:51:50.637Z,9.03
2023-05-12T16:54:18.643Z,8.02
2023-05-12T16:56:45.485Z,7.87
2023-05-12T16:59:12.167Z,8.04
2023-05-12T17:01:39.645Z,7.98
2023-05-12T17:04:07.960Z,8.72
2023-05-12T17:06:35.081Z,6.74
2023-05-12T17:09:02.109Z,6.56
2023-05-12T17:11:28.882Z,7.90
2023-05-12T17:13:55.896Z,6.78
2023-05-12T17:16:22.928Z,7.40
2023-05-12T17:21:19.598Z,7.53
2023-05-12T17:23:47.273Z,6.86
2023-05-12T17:26:14.584Z,7.54
2023-05-12T17:28:41.561Z,7.35
2023-05-12T17:31:08.651Z,8.02
2023-05-12T17:33:35.669Z,9.05
2023-05-12T17:36:11.698Z,8.14
2023-05-12T17:38:40.581Z,9.04
2023-05-12T17:41:07.292Z,7.03
2023-05-12T17:43:34.330Z,7.04
2023-05-12T17:46:03.469Z,8.75
2023-05-12T17:48:36.315Z,7.53
2023-05-12T17:51:06.689Z,6.83
2023-05-12T17:53:36.305Z,6.69
2023-05-12T17:56:06.504Z,7.37
2023-05-12T17:58:33.739Z,6.87
2023-05-12T18:01:00.780Z,7.02
2023-05-12T18:03:27.575Z,7.80
2023-05-12T18:05:54.449Z,7.77
2023-05-12T18:08:21.851Z,7.58
2023-05-12T18:10:48.948Z,7.87
2023-05-12T18:13:16.085Z,8.24
2023-05-12T18:15:43.053Z,7.65
2023-05-12T18:18:11.107Z,8.07
2023-05-12T18:20:38.087Z,7.64
2023-05-12T18:23:04.967Z,7.20
2023-05-12T18:25:32.270Z,7.38
2023-05-12T18:27:59.082Z,6.96
2023-05-12T18:30:25.974Z,5.52
2023-05-12T18:32:52.953Z,6.68
2023-05-12T18:35:20.040Z,5.93
2023-05-12T18:37:47.524Z,6.87
2023-05-12T18:40:14.443Z,7.49
2023-05-12T18:42:41.283Z,7.83
2023-05-12T18:45:08.434Z,8.49
2023-05-12T18:47:35.221Z,7.32
2023-05-12T18:50:02.821Z,5.89
2023-05-12T18:52:29.499Z,5.42
2023-05-12T18:54:56.376Z,6.26
2023-05-12T18:57:23.162Z,6.05
2023-05-12T18:59:50.251Z,6.47
2023-05-12T19:02:17.744Z,6.89
2023-05-12T19:04:44.612Z,7.81
2023-05-12T19:07:15.300Z,7.08
2023-05-12T19:09:43.005Z,6.71
2023-05-12T19:12:11.847Z,7.42
2023-05-12T19:14:39.889Z,6.85
2023-05-12T19:17:07.684Z,6.29
2023-05-12T19:19:35.026Z,6.80
2023-05-12T19:22:04.103Z,6.98
2023-05-12T19:24:30.970Z,6.99
2023-05-12T19:26:58.022Z,7.08
2023-05-12T19:29:24.811Z,6.52
2023-05-12T19:31:53.199Z,7.10
2023-05-12T19:34:20.750Z,6.36
2023-05-12T19:36:48.041Z,6.19
2023-05-12T19:39:14.821Z,7.15
2023-05-12T19:41:41.682Z,6.30
2023-05-12T19:44:08.420Z,5.43
2023-05-12T19:46:35.399Z,6.50
2023-05-12T19:49:02.443Z,6.52
2023-05-12T19:51:29.364Z,5.71
2023-05-12T19:53:56.119Z,7.00
2023-05-12T19:56:22.927Z,6.37
2023-05-12T19:58:49.805Z,4.80
2023-05-12T20:01:16.947Z,6.58
2023-05-12T20:03:43.741Z,5.94
2023-05-12T20:06:10.862Z,6.87
2023-05-12T20:08:38.094Z,6.35
2023-05-12T20:11:04.891Z,6.94
2023-05-12T20:13:32.247Z,7.48
2023-05-12T20:15:59.206Z,7.63
2023-05-12T20:18:26.012Z,6.99
2023-05-12T20:20:52.767Z,7.36
2023-05-12T20:23:19.768Z,7.06
2023-05-12T20:25:47.202Z,5.92
2023-05-12T20:28:14.074Z,6.78
2023-05-12T20:30:41.049Z,6.86
2023-05-12T20:33:07.894Z,7.37
2023-05-12T20:35:35.148Z,6.52
2023-05-12T20:38:02.444Z,6.29
2023-05-12T20:40:29.574Z,6.34
2023-05-12T20:42:56.257Z,5.50
2023-05-12T20:45:23.194Z,6.78
2023-05-12T20:47:50.368Z,6.33
2023-05-12T20:50:17.921Z,6.88
2023-05-12T20:52:47.499Z,6.84
2023-05-12T20:55:14.257Z,6.39
2023-05-12T20:57:41.382Z,6.21
2023-05-12T21:00:13.802Z,6.80
2023-05-12T21:02:40.856Z,7.15
2023-05-12T21:05:07.853Z,6.05
2023-05-12T21:07:35.112Z,7.04
2023-05-12T21:10:04.010Z,6.17
2023-05-12T21:12:31.617Z,7.25
2023-05-12T21:14:58.692Z,7.17
2023-05-12T21:17:25.570Z,6.81
2023-05-12T21:19:52.567Z,5.69
2023-05-12T21:22:19.278Z,6.28
2023-05-12T21:24:45.951Z,6.99
2023-05-12T21:27:12.839Z,6.08
2023-05-12T21:29:40.307Z,5.63
2023-05-12T21:32:07.697Z,6.63
2023-05-12T21:34:36.064Z,6.30
2023-05-12T21:37:03.288Z,5.65
2023-05-12T21:39:30.034Z,7.01
2023-05-12T21:41:56.794Z,6.85
2023-05-12T21:44:23.518Z,6.93
2023-05-12T21:46:50.578Z,6.84
2023-05-12T21:49:17.285Z,6.41
2023-05-12T21:51:44.410Z,7.35
2023-05-12T21:54:12.300Z,7.82
2023-05-12T21:56:39.027Z,8.11
2023-05-12T21:59:05.871Z,7.96
2023-05-12T22:01:33.016Z,7.44
2023-05-12T22:04:00.102Z,7.20
2023-05-12T22:06:27.069Z,4.53
2023-05-12T22:08:54.258Z,6.08
2023-05-12T22:11:21.897Z,5.73
2023-05-12T22:13:49.704Z,5.54
2023-05-12T22:16:18.590Z,6.58
2023-05-12T22:18:47.094Z,6.24
2023-05-12T22:21:13.806Z,6.77
2023-05-12T22:23:42.189Z,6.46
2023-05-12T22:26:09.559Z,6.60
2023-05-12T22:28:36.586Z,7.23
2023-05-12T22:31:03.912Z,7.09
2023-05-12T22:33:31.620Z,7.54
2023-05-12T22:36:00.167Z,7.56
2023-05-12T22:38:27.843Z,6.54
2023-05-12T22:40:54.692Z,7.36
2023-05-12T22:43:21.593Z,6.67
2023-05-12T22:45:55.941Z,6.02
2023-05-12T22:48:23.117Z,7.05
2023-05-12T22:50:54.107Z,7.52
2023-05-12T22:53:21.203Z,7.12
2023-05-12T22:55:48.073Z,6.77
2023-05-12T22:58:15.122Z,7.09
2023-05-12T23:00:41.891Z,7.17
2023-05-12T23:03:08.915Z,6.60
2023-05-12T23:05:36.084Z,6.71
2023-05-12T23:08:06.025Z,6.29
2023-05-12T23:10:32.689Z,6.95
2023-05-12T23:12:59.510Z,6.27
2023-05-12T23:15:26.260Z,5.04
2023-05-12T23:17:53.010Z,7.05
2023-05-12T23:20:20.361Z,7.42
2023-05-12T23:22:47.227Z,7.37
2023-05-12T23:25:14.208Z,7.47
2023-05-12T23:27:41.019Z,7.14
2023-05-12T23:30:08.537Z,7.10
2023-05-12T23:32:35.493Z,7.44
2023-05-12T23:35:02.354Z,7.05
2023-05-12T23:37:29.098Z,7.83
2023-05-12T23:39:55.868Z,6.68
2023-05-12T23:42:22.687Z,6.52
2023-05-12T23:44:49.425Z,6.61
2023-05-12T23:47:16.143Z,6.37
2023-05-12T23:49:42.833Z,8.18
2023-05-12T23:52:09.542Z,8.17
2023-05-12T23:54:36.557Z,6.13
2023-05-12T23:57:03.330Z,6.17
2023-05-12T23:59:30.913Z,8.23
